Timeline UpdatesTrip UpdatesNews PostsPvt PostsTravel TipsAdmin PostsConv PostsFollowed PostsChat RequestsBlog PostsPNR Posts

Disclaimer
Search
 
 
Mon Apr 21, 2014 07:36:25 ISTHomeTrainsΣChainsAtlasPNRForumGalleryNewsFAQTripsMembersLoginFeedback
No Recent News for this Train
Other Trains in the News **new
Latest...
⇐ Return Journey: Train# 59207

59208/Okha - Bhavnagar Passenger

Feb 22 2014 (11:46PM)
Change Departure Station:
Change Arrival Station:
Post a Train Travel TipPost a Train Travel Tip **new
Post a Comment/Question/Picture/VideoPost a Comment/Question/Picture/Video
Pantry/Catering
✕ NO Pantry Car
✕ NO Catering
RSA - Rake Sharing
59267/59268 Bhavnagar-Palitana Passenger
Rake/Coach Composition
Eng.. GEN..GEN..GEN..S2..S1..GEN..GEN..GEN..SLR
Loco
RTM WDM 3A.
News    PNR    Forum    Time-Table    Availability    Fare Chart    Map    Arr/Dep History    Trips    Gallery    ΣChains    X/O    Timeline    
Travel Time: 6h 50m    28 halts    Distance: 281 km    Avg Speed: 41 km/hr
Type: Passenger
Zone: WR/Western
Departs @ 14:45 (Avg 1m late)
Platform# 1
SMTWTFS
Okha/OKHA 
Arrives @ 21:35 (Avg 34m late)
Platform# ???
SMTWTFS
Sindhawadar/SDD 

28 halts. 31 intermediate Stations between Okha and Sindhawadar

Show ALL intermediate Stations  Show Old Time-Table

#CodeStation NameX/OArrivesAvgDepartsAvgHaltPFDay#KmSpeedElevZoneAddress
1OKHA»Okha (3)»  -14:45+1110.0635mWROkha, Gujarat
2MTHPMithapur  14:54+314:55+31m--19.5253mWRJamnagar, Gujarat
3BMRNBhimranaX  15:02+215:03+91m--112.4356mWRBhimrana, Gujarat
4VVAVarvala  15:22+915:23+91m--123.66014mWRJamnagar, Gujarat
5DWKDwarka (2)X  15:28+915:30+152m2128.61614mWRDwarka, Gujarat
6GRJAGorinja  15:45+1215:46+121m--132.5605mWRKhambhalia-Dwarka (SH 6), Gujarat
7OKDOkha MadhiX  16:04+716:05+111m--150.5285mWRNH 8E, Gujarat
8KRGAKuranga  16:23+516:24+51m--158.87012mWRJamnagar, Gujarat
9BHTABhatiya  16:34+216:35+71m--170.44634mWRNational Highway 8E, Gujarat
10BPKABhopalka  16:48+716:49+71m--180.47146mWRJamnagar, Gujarat
11BHTLBhatel  17:01+1217:02+121m--194.65935mWRJamnagar, Gujarat
12VQDViramdad  17:13+1017:14+101m--1105.34949mWRKhambhalia-Dwarka (SH 6), Gujarat
13KMBLKhambhalia  17:23+1017:25+122m11112.75849mWRKhambhalia, Gujarat
14SYQSinhanX  17:33+1417:34+141m--1120.55650mWRSH 6, Gujarat
15MDPRModpur  17:44+1417:45+151m--1129.85447mWRKhambhalia-Lalpur, Gujarat
16KNLSKanalus JunctionX  17:57+1617:58+171m--1140.63936mWRJamnagar, Gujarat
17PPLIPipli  18:06+1718:07+181m--1145.75230mWRJamnagar, Gujarat
18LKBLLakhabawal  18:18+1718:19+181m--1155.25521mWRJamnagar, Gujarat
19JAMJamnagar (2)  18:32+1818:37+185m11167.04314mWRJamnagar, Gujarat
20HAPAHapa (3)  18:49+1918:54+225m31175.75416mWRJamnagar, Gujarat
21ALBAlia Bada  19:05+2419:06+241m--1185.65927mWRJamnagar, Gujarat
22WTJJam Wanthali  19:18+2419:19+251m--1197.33852mWRRanuja Village Rd, Gujarat
23JALDJaliya DevaniX  19:31+2319:33+252m--1204.93450mWRRanuja Village Rd, Gujarat
24HMHadmatiya Junction  19:47+1919:48+221m--1212.84870mWRHadmatiya Junction Railway Station, Gujarat
25CXChanolX  19:57+2219:59+232m--1219.93289mWRState Highway 25, Gujarat
26PDHPadadhari  20:12+1820:13+201m--1226.86071mWRPaddhari, Gujarat
27KHDIKhanderi  20:27+2120:28+211m--1240.830111mWRRajkot, Gujarat
28RJTRajkot Junction (5)X  20:50+1621:00+2510m11251.634128mWRRajkot, Gujarat
29KHCKhoranaX  21:19+2721:20+301m--1262.374131mWRState Highway 113, Gujarat
30SDD•Sindhawadar•X  21:35+3421:36+371m--1280.838105mWRSindhavadar, Gujarat
31WKRCWankaner City  21:52+3421:53+341m--1291.01380mWRWankaner, Gujarat
32WKRWankaner Junction (4)  22:02+3422:04+472m--1292.93287mWRWankaner, Gujarat
33DLDaladi  22:27+4122:28+431m--1305.342115mWRDaladi, Gujarat
34THANThan Junction (3)  22:48+3922:50+442m11319.548138mWRThangadh, Gujarat
35VDVagdiyaX  23:03+4223:04+451m--1329.848149mWRState Highway 113, Gujarat
36RARamparda  23:12+4523:13+511m--1336.361141mWRSurendranagar, Gujarat
37MOLMuli RoadX  23:22+5123:24+592m11345.537108mWRSurendranagar, Gujarat
38DXRDigsar  23:37+5423:38+581m--1353.521100mWRState Highway 17, Gujarat
39CJRChamaraj  23:57+3900:29+2232m--1360.1986mWRState Highway 17, Gujarat
40SUNRSurendranagar Junction (4)  01:15+301:55+040m32367.22272mWRSurendra Nagar, Gujarat
41SRGTSurendranagar Gate (1)X  02:01+602:02+61m12369.44271mWRSurendranagar, Gujarat
42JVNJorawarnagar Junction (1)  02:06+1302:07+131m12372.13669mWRSurendra Nagar, Gujarat
43WCWadhwan City  02:13+1402:14+151m--2375.77667mWRSurendranagar, Gujarat
44LMLimbdi (1)  02:30+1602:31+171m12396.06051mWRLimbdi, Gujarat
45CDAChuda  02:41+1702:42+171m--2406.07063mWRState Highway 38, Gujarat
46RURRanpur  02:56+1702:57+171m--2422.36561mWRRanpur, Gujarat
47KDIKundli  03:07+1803:08+181m--2433.15786mWRState Highway 38, Gujarat
48BTDBotad Junction (5)  03:20+1903:22+222m--2444.56696mWRBotad, Gujarat
49LTDLathidad  03:32+2503:33+251m--2455.55668mWRTajpar Rd, Gujarat
50NGANingala Junction  03:41+2603:42+261m--2463.16457mWRState Highway 117, Gujarat
51ALMRAlampur  03:49+2603:50+261m--2470.65059mWRState Highway 31, Gujarat
52UJUjalvav  03:58+2603:59+261m--2477.35164mWRState Highway 31, Gujarat
53DLJDhola Junction  04:11+2504:12+251m--2487.48337mWRDhola, Gujarat
54SOASanosra  04:20+2604:21+261m--2498.55136mWRState Highway 25, Gujarat
55BJUDBajud  04:26+2604:27+261m--2502.76137mWRState Highway 31, Gujarat
56SGDSongadh (1)  04:33+2704:34+261m12508.93040mWRBhavnagar, Gujarat
57SOJNSihor Gujarat  04:49+2204:50+221m--2516.34542mWRShihor, Gujarat
58KDMRKodiyar Mandir  04:57+2104:58+211m--2521.62292mWRSH 21, Gujarat
59VTJVartej  05:12+1605:13+171m--2526.82924mWRBhavnagar, Gujarat
60BVPBhavnagar Para  05:28+905:29+91m--2534.0813mWRBhavnagar, Gujarat
61BVCBhavnagar Terminus (2)  05:50-1-12536.8-11mWRBhavnagar, Gujarat
Scroll to Top
Scroll to Bottom